Time;durP1;ratioP1;P1;durP2;ratioP2;P2;SDS_P1;SDS_P2;PMS_P1;PMS_P2;Temp;Humidity;BMP_temperature;BMP_pressure;BME280_temperature;BME280_humidity;BME280_pressure;Samples;Min_cycle;Max_cycle;Signal;HPM_P1;HPM_P2
2021/05/23 00:02:05;;;;;;;10.95;1.90;;;;;;;;;;4976694;28;20034;-81
2021/05/23 00:04:31;;;;;;;9.25;1.65;;;;;;;;;;4984550;28;20026;-80
2021/05/23 00:06:57;;;;;;;8.95;1.77;;;;;;;;;;4983477;28;20033;-81
2021/05/23 00:09:24;;;;;;;11.60;2.10;;;;;;;;;;4983768;28;20034;-82
2021/05/23 00:11:50;;;;;;;9.30;1.88;;;;;;;;;;4983836;28;20036;-81
2021/05/23 00:14:17;;;;;;;12.02;2.00;;;;;;;;;;4980004;28;20490;-81
2021/05/23 00:16:43;;;;;;;10.38;2.60;;;;;;;;;;4983323;28;20018;-80
2021/05/23 00:19:10;;;;;;;10.10;2.10;;;;;;;;;;4981926;28;20038;-79
2021/05/23 00:21:36;;;;;;;10.27;2.10;;;;;;;;;;4988972;28;20033;-80
2021/05/23 00:24:03;;;;;;;11.43;2.53;;;;;;;;;;4980600;28;20029;-79
2021/05/23 00:26:30;;;;;;;9.00;1.90;;;;;;;;;;4982937;28;20080;-79
2021/05/23 00:28:57;;;;;;;9.65;1.65;;;;;;;;;;4982147;28;20033;-82
2021/05/23 00:31:23;;;;;;;10.05;2.58;;;;;;;;;;4986749;28;20112;-81
2021/05/23 00:33:50;;;;;;;13.18;2.55;;;;;;;;;;4985740;28;20040;-82
2021/05/23 00:36:17;;;;;;;9.48;1.90;;;;;;;;;;4980711;28;20026;-81
2021/05/23 00:38:45;;;;;;;10.00;2.63;;;;;;;;;;4983500;28;20014;-81
2021/05/23 00:41:11;;;;;;;10.13;2.42;;;;;;;;;;4979198;28;20065;-82
2021/05/23 00:43:38;;;;;;;10.15;2.30;;;;;;;;;;4982094;28;20027;-81
2021/05/23 00:46:05;;;;;;;9.52;2.35;;;;;;;;;;4978631;28;20026;-82
2021/05/23 00:48:31;;;;;;;10.25;2.53;;;;;;;;;;4988560;28;20072;-81
2021/05/23 00:50:58;;;;;;;7.53;1.90;;;;;;;;;;4984186;28;20667;-81
2021/05/23 00:53:24;;;;;;;12.13;2.38;;;;;;;;;;4986959;28;20044;-81
2021/05/23 00:55:50;;;;;;;7.80;2.15;;;;;;;;;;4983461;28;20560;-81
2021/05/23 00:58:18;;;;;;;7.88;2.20;;;;;;;;;;4978750;28;20036;-82
2021/05/23 01:00:45;;;;;;;9.82;3.05;;;;;;;;;;4979720;28;20062;-82
2021/05/23 01:03:29;;;;;;;10.93;2.95;;;;;;;;;;4981131;28;20406;-82
2021/05/23 01:06:07;;;;;;;10.15;2.30;;;;;;;;;;4982235;28;20037;-82
2021/05/23 01:08:37;;;;;;;7.03;1.60;;;;;;;;;;4983133;28;20512;-82
2021/05/23 01:11:05;;;;;;;10.75;3.10;;;;;;;;;;4983002;28;20098;-82
2021/05/23 01:13:37;;;;;;;11.15;2.33;;;;;;;;;;4981918;28;20098;-81
2021/05/23 01:16:07;;;;;;;10.27;2.80;;;;;;;;;;4976462;28;20025;-81
2021/05/23 01:18:42;;;;;;;10.05;2.33;;;;;;;;;;4987211;28;20038;-82
2021/05/23 01:21:09;;;;;;;7.35;1.70;;;;;;;;;;4982826;28;20112;-81
2021/05/23 01:23:41;;;;;;;6.93;1.83;;;;;;;;;;4984953;28;20391;-81
2021/05/23 01:26:09;;;;;;;9.98;2.10;;;;;;;;;;4976496;28;20029;-81
2021/05/23 01:28:39;;;;;;;7.85;1.50;;;;;;;;;;4980965;28;20026;-81
2021/05/23 01:31:10;;;;;;;8.00;1.83;;;;;;;;;;4981885;28;20022;-81
2021/05/23 01:33:37;;;;;;;8.10;2.05;;;;;;;;;;4995581;28;20033;-82
2021/05/23 01:36:04;;;;;;;7.43;1.88;;;;;;;;;;4983345;28;20053;-81
2021/05/23 01:38:31;;;;;;;9.07;2.10;;;;;;;;;;4981479;28;20022;-82
2021/05/23 01:40:59;;;;;;;8.32;1.85;;;;;;;;;;4983101;28;20493;-82
2021/05/23 01:43:27;;;;;;;10.02;1.65;;;;;;;;;;4985168;28;20464;-81
2021/05/23 01:45:54;;;;;;;7.93;1.50;;;;;;;;;;4975635;28;21070;-82
2021/05/23 01:48:20;;;;;;;9.40;1.95;;;;;;;;;;4979177;28;23026;-81
2021/05/23 01:50:47;;;;;;;9.07;2.03;;;;;;;;;;4980054;28;20029;-81
2021/05/23 01:53:15;;;;;;;10.80;1.45;;;;;;;;;;4976818;28;20538;-80
2021/05/23 01:55:41;;;;;;;7.47;1.65;;;;;;;;;;4983271;28;20402;-83
2021/05/23 01:58:07;;;;;;;7.68;1.50;;;;;;;;;;4975490;28;20109;-79
2021/05/23 02:00:47;;;;;;;7.80;1.52;;;;;;;;;;4978555;28;20680;-80
2021/05/23 02:03:14;;;;;;;9.50;1.35;;;;;;;;;;4976261;28;20030;-80
2021/05/23 02:05:47;;;;;;;7.57;1.52;;;;;;;;;;4983014;28;20030;-80
2021/05/23 02:08:17;;;;;;;10.07;1.90;;;;;;;;;;4975578;28;20089;-81
2021/05/23 02:10:44;;;;;;;10.48;1.70;;;;;;;;;;4975491;28;20054;-80
2021/05/23 02:13:11;;;;;;;7.32;1.60;;;;;;;;;;4977495;28;20376;-81
2021/05/23 02:15:38;;;;;;;8.77;1.35;;;;;;;;;;4982046;28;20022;-80
2021/05/23 02:18:07;;;;;;;6.82;1.27;;;;;;;;;;4983264;28;20359;-80
2021/05/23 02:20:33;;;;;;;9.45;1.85;;;;;;;;;;4981656;28;20025;-80
2021/05/23 02:23:01;;;;;;;8.15;1.67;;;;;;;;;;4980354;28;20757;-82
2021/05/23 02:25:32;;;;;;;6.90;1.60;;;;;;;;;;4982435;28;20065;-82
2021/05/23 02:28:01;;;;;;;8.52;1.70;;;;;;;;;;4981162;28;20069;-80
2021/05/23 02:30:35;;;;;;;7.65;1.40;;;;;;;;;;4981750;28;20087;-80
2021/05/23 02:33:01;;;;;;;9.45;1.80;;;;;;;;;;4991273;28;20394;-80
2021/05/23 02:35:28;;;;;;;8.32;1.98;;;;;;;;;;4982996;28;20029;-82
2021/05/23 02:37:57;;;;;;;8.68;2.22;;;;;;;;;;4980264;28;20021;-81
2021/05/23 02:40:24;;;;;;;12.85;2.25;;;;;;;;;;4979258;28;20052;-80
2021/05/23 02:42:51;;;;;;;8.82;1.85;;;;;;;;;;4983694;28;20135;-79
2021/05/23 02:45:17;;;;;;;8.13;1.92;;;;;;;;;;4971853;28;20180;-82
2021/05/23 02:47:45;;;;;;;6.82;1.40;;;;;;;;;;4976888;28;20025;-80
2021/05/23 02:50:14;;;;;;;9.13;2.03;;;;;;;;;;4976028;28;20364;-79
2021/05/23 02:52:40;;;;;;;10.30;1.70;;;;;;;;;;4996227;28;20045;-80
2021/05/23 02:55:08;;;;;;;9.82;2.08;;;;;;;;;;4975393;28;20058;-81
2021/05/23 02:57:35;;;;;;;7.53;2.13;;;;;;;;;;4984285;28;20489;-81
2021/05/23 03:00:03;;;;;;;9.68;1.92;;;;;;;;;;4963855;28;20081;-81
2021/05/23 03:02:29;;;;;;;9.57;2.55;;;;;;;;;;5010303;28;20014;-88
2021/05/23 03:04:55;;;;;;;9.13;1.75;;;;;;;;;;4996750;28;20036;-87
2021/05/23 03:07:22;;;;;;;7.72;1.92;;;;;;;;;;4990758;28;20080;-88
2021/05/23 03:09:49;;;;;;;9.20;1.52;;;;;;;;;;4992294;28;20030;-88
2021/05/23 03:12:15;;;;;;;8.88;1.88;;;;;;;;;;4992041;28;20502;-88
2021/05/23 03:14:42;;;;;;;8.20;1.83;;;;;;;;;;4993663;28;20026;-88
2021/05/23 03:17:10;;;;;;;8.85;2.00;;;;;;;;;;4990132;28;20089;-88
2021/05/23 03:19:37;;;;;;;8.85;1.83;;;;;;;;;;4994146;28;20106;-88
2021/05/23 03:22:05;;;;;;;10.05;2.20;;;;;;;;;;4992098;28;20455;-89
2021/05/23 03:24:32;;;;;;;7.72;1.80;;;;;;;;;;5005160;28;20096;-88
2021/05/23 03:26:58;;;;;;;8.65;1.70;;;;;;;;;;5002745;28;20030;-88
2021/05/23 03:29:25;;;;;;;9.05;1.77;;;;;;;;;;5002306;28;20030;-89
2021/05/23 03:31:51;;;;;;;9.88;1.70;;;;;;;;;;5000100;28;20367;-88
2021/05/23 03:34:18;;;;;;;8.95;1.63;;;;;;;;;;5004128;28;20026;-88
2021/05/23 03:36:44;;;;;;;8.05;1.67;;;;;;;;;;5007140;28;20034;-88
2021/05/23 03:39:10;;;;;;;7.93;1.55;;;;;;;;;;4997014;28;20026;-88
2021/05/23 03:41:36;;;;;;;9.85;1.40;;;;;;;;;;5001964;28;20449;-88
2021/05/23 03:44:04;;;;;;;7.80;1.63;;;;;;;;;;4999726;28;20790;-88
2021/05/23 03:46:32;;;;;;;8.68;1.70;;;;;;;;;;5004959;28;20030;-88
2021/05/23 03:48:58;;;;;;;8.30;1.55;;;;;;;;;;4999097;28;20351;-89
2021/05/23 03:51:25;;;;;;;10.70;1.80;;;;;;;;;;5005094;28;20026;-89
2021/05/23 03:53:51;;;;;;;7.78;1.45;;;;;;;;;;5010618;28;20057;-89
2021/05/23 03:56:17;;;;;;;8.75;1.52;;;;;;;;;;4993281;28;20034;-87
2021/05/23 03:58:43;;;;;;;8.75;1.75;;;;;;;;;;4994654;28;20045;-88
2021/05/23 04:01:09;;;;;;;10.45;1.80;;;;;;;;;;5009612;28;20026;-89
2021/05/23 04:03:36;;;;;;;7.10;1.52;;;;;;;;;;4999817;28;20023;-88
2021/05/23 04:06:03;;;;;;;8.30;1.60;;;;;;;;;;4999467;28;20037;-87
2021/05/23 04:08:29;;;;;;;12.35;1.95;;;;;;;;;;5003217;28;20057;-87
2021/05/23 04:11:00;;;;;;;9.05;2.15;;;;;;;;;;4999705;28;20041;-87
2021/05/23 04:13:27;;;;;;;9.02;1.95;;;;;;;;;;5008200;28;20022;-87
2021/05/23 04:15:53;;;;;;;7.40;1.83;;;;;;;;;;5011485;28;20022;-88
2021/05/23 04:18:20;;;;;;;13.38;2.13;;;;;;;;;;4999674;28;20505;-87
2021/05/23 04:20:47;;;;;;;9.05;2.10;;;;;;;;;;5021734;28;20022;-89
2021/05/23 04:23:14;;;;;;;11.18;2.13;;;;;;;;;;5020074;28;20032;-89
2021/05/23 04:25:40;;;;;;;10.85;2.30;;;;;;;;;;5008653;28;20120;-86
2021/05/23 04:28:08;;;;;;;12.20;2.20;;;;;;;;;;5001479;28;20041;-86
2021/05/23 04:30:34;;;;;;;10.30;2.08;;;;;;;;;;5001254;28;20415;-86
2021/05/23 04:33:03;;;;;;;13.43;2.20;;;;;;;;;;4997559;28;20554;-85
2021/05/23 04:35:30;;;;;;;12.23;2.70;;;;;;;;;;5001802;28;20104;-86
2021/05/23 04:38:00;;;;;;;12.32;2.50;;;;;;;;;;4996545;28;20026;-90
2021/05/23 04:40:27;;;;;;;13.85;2.42;;;;;;;;;;4999311;28;20060;-87
2021/05/23 04:42:55;;;;;;;12.23;2.70;;;;;;;;;;4999787;28;20040;-88
2021/05/23 04:45:24;;;;;;;13.43;2.47;;;;;;;;;;5001699;28;20084;-87
2021/05/23 04:47:50;;;;;;;13.98;2.90;;;;;;;;;;5020360;28;20045;-88
2021/05/23 04:50:17;;;;;;;14.35;2.83;;;;;;;;;;4999376;28;20044;-88
2021/05/23 04:52:45;;;;;;;11.70;2.80;;;;;;;;;;5018619;28;20061;-87
2021/05/23 04:55:15;;;;;;;14.80;2.90;;;;;;;;;;4994739;28;20040;-86
2021/05/23 04:57:43;;;;;;;12.25;2.70;;;;;;;;;;5018842;28;20035;-88
2021/05/23 05:00:12;;;;;;;14.73;2.58;;;;;;;;;;5014217;28;20029;-87
2021/05/23 05:02:40;;;;;;;11.75;2.63;;;;;;;;;;5015953;28;20033;-85
2021/05/23 05:05:08;;;;;;;17.52;3.63;;;;;;;;;;4996311;28;20034;-86
2021/05/23 05:07:35;;;;;;;14.95;3.25;;;;;;;;;;5001934;28;20056;-86
2021/05/23 05:10:03;;;;;;;15.02;3.53;;;;;;;;;;5013722;28;20048;-86
2021/05/23 05:12:30;;;;;;;21.98;5.45;;;;;;;;;;5001531;28;20031;-86
2021/05/23 05:15:00;;;;;;;19.40;6.05;;;;;;;;;;5016416;28;20075;-86
2021/05/23 05:17:27;;;;;;;18.85;6.05;;;;;;;;;;5016222;28;20041;-86
2021/05/23 05:19:56;;;;;;;20.40;6.05;;;;;;;;;;5022775;28;20033;-86
2021/05/23 05:22:23;;;;;;;22.13;6.38;;;;;;;;;;5019866;28;20087;-87
2021/05/23 05:24:50;;;;;;;21.08;6.20;;;;;;;;;;4984658;28;20589;-87
2021/05/23 05:27:20;;;;;;;15.60;4.35;;;;;;;;;;4999204;28;20148;-88
2021/05/23 05:29:47;;;;;;;16.75;3.50;;;;;;;;;;5025891;28;20053;-88
2021/05/23 05:32:14;;;;;;;14.45;3.80;;;;;;;;;;4996461;28;20049;-88
2021/05/23 05:34:43;;;;;;;16.70;3.88;;;;;;;;;;5000414;28;20120;-88
2021/05/23 05:37:11;;;;;;;15.30;3.42;;;;;;;;;;4995439;28;20042;-87
2021/05/23 05:39:40;;;;;;;16.17;3.83;;;;;;;;;;4999779;28;20034;-88
2021/05/23 05:42:08;;;;;;;17.42;4.22;;;;;;;;;;4991868;28;20026;-87
2021/05/23 05:44:38;;;;;;;15.90;4.13;;;;;;;;;;5009241;28;20557;-88
2021/05/23 05:47:05;;;;;;;17.23;4.38;;;;;;;;;;4993580;28;20022;-88
2021/05/23 05:49:52;;;;;;;19.95;5.22;;;;;;;;;;5013197;28;20048;-88
2021/05/23 05:52:19;;;;;;;20.80;5.18;;;;;;;;;;5014787;28;20826;-87
2021/05/23 05:54:47;;;;;;;17.65;4.80;;;;;;;;;;5014436;28;20038;-88
2021/05/23 05:57:14;;;;;;;17.00;4.65;;;;;;;;;;4999285;28;20111;-89
2021/05/23 05:59:42;;;;;;;17.90;4.65;;;;;;;;;;5000331;28;20141;-88
2021/05/23 06:02:10;;;;;;;17.92;4.47;;;;;;;;;;5008118;28;20029;-89
2021/05/23 06:04:37;;;;;;;20.08;4.15;;;;;;;;;;5002841;28;20095;-88
2021/05/23 06:07:03;;;;;;;17.08;4.13;;;;;;;;;;5005702;28;20013;-89
2021/05/23 06:09:31;;;;;;;20.48;4.53;;;;;;;;;;5032701;28;20033;-89
2021/05/23 06:12:01;;;;;;;17.52;4.18;;;;;;;;;;5018639;28;20081;-87
2021/05/23 06:14:27;;;;;;;16.90;4.30;;;;;;;;;;5025277;28;20029;-88
2021/05/23 06:16:56;;;;;;;19.00;3.83;;;;;;;;;;5013816;28;20013;-89
2021/05/23 06:19:23;;;;;;;19.85;3.17;;;;;;;;;;5028697;28;20176;-89
2021/05/23 06:21:50;;;;;;;18.35;3.15;;;;;;;;;;5007108;28;20045;-89
2021/05/23 06:24:17;;;;;;;16.75;3.05;;;;;;;;;;4996885;28;20047;-89
2021/05/23 06:26:47;;;;;;;14.75;3.45;;;;;;;;;;4995468;28;20105;-89
2021/05/23 06:29:16;;;;;;;13.13;3.35;;;;;;;;;;5002595;28;20049;-89
2021/05/23 06:31:44;;;;;;;15.15;3.67;;;;;;;;;;5011490;28;20026;-90
2021/05/23 06:34:12;;;;;;;17.02;3.00;;;;;;;;;;5001301;28;20038;-90
2021/05/23 06:36:41;;;;;;;18.90;3.20;;;;;;;;;;5000521;28;20061;-91
2021/05/23 06:39:10;;;;;;;15.63;3.30;;;;;;;;;;5002496;28;20021;-89
2021/05/23 06:41:43;;;;;;;16.27;3.47;;;;;;;;;;5002094;28;20072;-90
2021/05/23 06:44:10;;;;;;;16.00;3.10;;;;;;;;;;5000093;28;20119;-90
2021/05/23 06:46:39;;;;;;;15.60;2.67;;;;;;;;;;5000539;28;20033;-90
2021/05/23 06:49:06;;;;;;;14.75;2.38;;;;;;;;;;5013643;28;20030;-89
2021/05/23 06:51:36;;;;;;;14.73;3.10;;;;;;;;;;4999528;28;20034;-89
2021/05/23 06:54:04;;;;;;;13.90;2.95;;;;;;;;;;4994262;28;20028;-88
2021/05/23 06:56:32;;;;;;;15.55;3.03;;;;;;;;;;5003059;28;20866;-91
2021/05/23 06:59:02;;;;;;;13.00;3.03;;;;;;;;;;4997333;28;20018;-91
2021/05/23 07:01:31;;;;;;;17.52;2.78;;;;;;;;;;5005817;28;20025;-90
2021/05/23 07:03:58;;;;;;;14.55;2.63;;;;;;;;;;4998262;28;20108;-92
2021/05/23 07:06:25;;;;;;;18.58;3.15;;;;;;;;;;4999010;28;20025;-91
2021/05/23 07:08:52;;;;;;;20.08;3.00;;;;;;;;;;4994076;28;20698;-89
2021/05/23 07:11:24;;;;;;;13.80;2.75;;;;;;;;;;4995928;28;20029;-89
2021/05/23 07:13:53;;;;;;;12.20;2.40;;;;;;;;;;4999873;28;20018;-90
2021/05/23 07:16:19;;;;;;;12.45;2.20;;;;;;;;;;4995299;28;20821;-90
2021/05/23 07:18:46;;;;;;;13.20;2.15;;;;;;;;;;4994924;28;20036;-89
2021/05/23 07:21:13;;;;;;;11.93;2.30;;;;;;;;;;4996889;28;20044;-90
2021/05/23 07:23:42;;;;;;;12.18;2.13;;;;;;;;;;4997855;28;20032;-90
2021/05/23 07:26:11;;;;;;;11.77;2.22;;;;;;;;;;4988308;28;20033;-90
2021/05/23 07:28:37;;;;;;;16.85;2.63;;;;;;;;;;5002929;28;20030;-91
2021/05/23 07:31:05;;;;;;;10.25;2.10;;;;;;;;;;5002271;28;20486;-91
2021/05/23 07:33:31;;;;;;;15.18;2.80;;;;;;;;;;5001101;28;20810;-91
2021/05/23 07:35:58;;;;;;;16.02;2.42;;;;;;;;;;5000578;28;20030;-92
2021/05/23 07:38:25;;;;;;;15.98;3.50;;;;;;;;;;5004480;28;20049;-90
2021/05/23 07:40:52;;;;;;;15.55;2.60;;;;;;;;;;5010485;28;20818;-90
2021/05/23 07:43:19;;;;;;;14.18;2.50;;;;;;;;;;5000698;28;21193;-92
2021/05/23 07:45:48;;;;;;;13.02;2.13;;;;;;;;;;5001364;28;20120;-91
2021/05/23 07:48:16;;;;;;;12.85;2.17;;;;;;;;;;5004755;28;20049;-91
2021/05/23 07:50:47;;;;;;;13.40;2.47;;;;;;;;;;5004989;28;20030;-89
2021/05/23 07:53:21;;;;;;;12.07;2.10;;;;;;;;;;5006392;28;20093;-88
2021/05/23 07:55:53;;;;;;;16.15;2.50;;;;;;;;;;4998505;28;20483;-89
2021/05/23 07:58:23;;;;;;;13.23;2.20;;;;;;;;;;4992317;28;20037;-90
2021/05/23 08:00:53;;;;;;;16.60;2.63;;;;;;;;;;4994553;28;20103;-90
2021/05/23 08:03:20;;;;;;;12.52;2.40;;;;;;;;;;4996596;28;20113;-88
2021/05/23 08:05:50;;;;;;;13.30;2.08;;;;;;;;;;5008163;28;20034;-83
2021/05/23 08:08:18;;;;;;;12.43;2.10;;;;;;;;;;4987660;28;20383;-82
2021/05/23 08:10:45;;;;;;;14.95;2.08;;;;;;;;;;4985005;28;20116;-82
2021/05/23 08:13:12;;;;;;;11.82;2.20;;;;;;;;;;4990758;28;20137;-82
2021/05/23 08:15:41;;;;;;;10.85;2.10;;;;;;;;;;4997580;28;20453;-80
2021/05/23 08:18:08;;;;;;;12.77;2.42;;;;;;;;;;4985295;28;20136;-82
2021/05/23 08:20:36;;;;;;;13.52;2.13;;;;;;;;;;4985760;28;20084;-80
2021/05/23 08:23:04;;;;;;;12.88;1.95;;;;;;;;;;4978678;28;20030;-80
2021/05/23 08:25:33;;;;;;;11.48;2.08;;;;;;;;;;4986775;28;20026;-82
2021/05/23 08:27:59;;;;;;;11.07;2.08;;;;;;;;;;4983076;28;20038;-81
2021/05/23 08:30:25;;;;;;;11.60;2.08;;;;;;;;;;4997121;28;20449;-81
2021/05/23 08:32:52;;;;;;;11.70;2.20;;;;;;;;;;4989087;28;20064;-80
2021/05/23 08:35:21;;;;;;;11.48;2.40;;;;;;;;;;4987094;28;20048;-78
2021/05/23 08:37:49;;;;;;;15.63;2.10;;;;;;;;;;4985922;28;20022;-80
2021/05/23 08:40:15;;;;;;;15.68;2.30;;;;;;;;;;4987976;28;20037;-82
2021/05/23 08:42:43;;;;;;;11.98;2.08;;;;;;;;;;5006557;28;20034;-88
2021/05/23 08:45:11;;;;;;;11.25;2.00;;;;;;;;;;5002854;28;20029;-89
2021/05/23 08:47:49;;;;;;;13.55;2.47;;;;;;;;;;5010056;28;20029;-88
2021/05/23 08:50:20;;;;;;;15.77;3.30;;;;;;;;;;4999422;28;20391;-90
2021/05/23 08:52:53;;;;;;;10.73;2.35;;;;;;;;;;5007440;28;20026;-87
2021/05/23 08:55:20;;;;;;;13.82;2.35;;;;;;;;;;5015825;28;20045;-87
2021/05/23 08:57:50;;;;;;;12.05;2.40;;;;;;;;;;4999831;28;20121;-90
2021/05/23 09:00:18;;;;;;;11.70;2.47;;;;;;;;;;4999924;28;20090;-87
2021/05/23 09:02:51;;;;;;;11.07;2.20;;;;;;;;;;5017584;28;20041;-89
2021/05/23 09:05:36;;;;;;;12.85;3.08;;;;;;;;;;5002076;28;20591;-93
2021/05/23 09:08:24;;;;;;;15.27;2.90;;;;;;;;;;5009874;28;20010;-90
2021/05/23 09:11:12;;;;;;;10.95;2.53;;;;;;;;;;5016665;28;20170;-90
2021/05/23 09:13:40;;;;;;;14.10;2.60;;;;;;;;;;5004430;28;20795;-89
2021/05/23 09:16:13;;;;;;;11.40;2.53;;;;;;;;;;5007478;28;20022;-89
2021/05/23 09:18:43;;;;;;;13.15;2.22;;;;;;;;;;5005289;28;20034;-90
2021/05/23 09:21:10;;;;;;;14.13;2.58;;;;;;;;;;4997327;28;20077;-91
2021/05/23 09:24:04;;;;;;;13.40;2.47;;;;;;;;;;5014186;28;20052;-90
2021/05/23 09:26:33;;;;;;;14.25;3.28;;;;;;;;;;5001634;28;20041;-90
2021/05/23 09:29:06;;;;;;;13.45;2.65;;;;;;;;;;5000926;28;20029;-91
2021/05/23 09:31:34;;;;;;;12.98;2.80;;;;;;;;;;5000280;28;20052;-91
2021/05/23 09:34:02;;;;;;;14.30;2.65;;;;;;;;;;5020758;28;20031;-89
2021/05/23 09:39:20;;;;;;;11.57;2.45;;;;;;;;;;5007522;28;20136;-91
2021/05/23 09:41:48;;;;;;;12.35;2.38;;;;;;;;;;5010482;28;20049;-91
2021/05/23 09:44:16;;;;;;;11.77;2.35;;;;;;;;;;5007671;28;20153;-90
2021/05/23 09:47:03;;;;;;;11.50;2.70;;;;;;;;;;5004192;28;20026;-90
2021/05/23 09:49:41;;;;;;;12.18;2.30;;;;;;;;;;5005098;28;20040;-89
2021/05/23 09:52:27;;;;;;;16.17;2.65;;;;;;;;;;5001964;28;20056;-90
2021/05/23 09:55:00;;;;;;;14.70;3.17;;;;;;;;;;5010489;28;20038;-90
2021/05/23 09:57:30;;;;;;;12.35;2.90;;;;;;;;;;5000374;28;20049;-88
2021/05/23 10:00:00;;;;;;;13.40;2.80;;;;;;;;;;5002988;28;20026;-89
2021/05/23 10:02:26;;;;;;;10.45;2.70;;;;;;;;;;4994719;28;20029;-89
2021/05/23 10:05:00;;;;;;;13.70;3.13;;;;;;;;;;5008642;28;20026;-90
2021/05/23 10:07:31;;;;;;;12.00;2.50;;;;;;;;;;5002341;28;20025;-90
2021/05/23 10:09:58;;;;;;;11.85;3.13;;;;;;;;;;5004605;28;20517;-87
2021/05/23 10:12:34;;;;;;;13.38;4.72;;;;;;;;;;5001658;28;20042;-91
2021/05/23 10:15:16;;;;;;;12.20;2.97;;;;;;;;;;5016831;27;2618940;-78
2021/05/23 10:17:44;;;;;;;13.18;3.40;;;;;;;;;;5098870;28;20112;-80
2021/05/23 10:20:11;;;;;;;13.57;3.35;;;;;;;;;;5084842;27;20031;-79
2021/05/23 10:22:39;;;;;;;14.18;3.10;;;;;;;;;;5093739;28;20028;-80
2021/05/23 10:25:19;;;;;;;15.85;2.90;;;;;;;;;;5072353;28;20205;-80
2021/05/23 10:27:46;;;;;;;14.93;3.65;;;;;;;;;;5074141;28;20066;-78
2021/05/23 10:30:13;;;;;;;13.40;3.13;;;;;;;;;;5093474;27;20035;-80
2021/05/23 10:32:41;;;;;;;13.20;3.17;;;;;;;;;;5095387;27;20020;-80
2021/05/23 10:35:24;;;;;;;11.63;2.95;;;;;;;;;;5091322;27;20636;-81
2021/05/23 10:37:51;;;;;;;15.00;2.85;;;;;;;;;;5092551;27;20085;-80
2021/05/23 10:40:19;;;;;;;12.52;2.72;;;;;;;;;;5088564;27;20074;-80
2021/05/23 10:42:59;;;;;;;14.65;2.78;;;;;;;;;;5095108;27;20084;-80
2021/05/23 10:45:27;;;;;;;13.65;2.75;;;;;;;;;;5086898;28;20035;-81
2021/05/23 10:47:57;;;;;;;12.55;2.40;;;;;;;;;;5096163;27;20364;-80
2021/05/23 10:50:36;;;;;;;17.08;2.88;;;;;;;;;;5088951;28;20392;-79
2021/05/23 10:53:03;;;;;;;12.52;2.10;;;;;;;;;;5085036;28;20065;-80
2021/05/23 10:55:32;;;;;;;14.73;2.53;;;;;;;;;;5079168;28;20107;-79
2021/05/23 10:57:59;;;;;;;14.15;3.47;;;;;;;;;;5081112;28;20069;-79
2021/05/23 11:00:27;;;;;;;13.85;2.45;;;;;;;;;;5082281;28;20025;-80
2021/05/23 11:02:55;;;;;;;13.68;2.67;;;;;;;;;;5081358;28;20032;-80
2021/05/23 11:05:29;;;;;;;11.73;2.30;;;;;;;;;;5090874;27;20020;-80
2021/05/23 11:08:00;;;;;;;12.75;3.38;;;;;;;;;;5079183;28;20112;-79
2021/05/23 11:10:43;;;;;;;15.38;2.78;;;;;;;;;;5078971;28;20719;-81
2021/05/23 11:13:12;;;;;;;13.25;2.88;;;;;;;;;;5074456;28;20043;-79
2021/05/23 11:15:45;;;;;;;14.02;2.63;;;;;;;;;;5076206;28;20039;-79
2021/05/23 11:18:16;;;;;;;15.60;2.90;;;;;;;;;;5074515;28;20031;-80
2021/05/23 11:20:43;;;;;;;13.02;3.00;;;;;;;;;;5076630;28;20056;-81
2021/05/23 11:23:11;;;;;;;16.63;3.55;;;;;;;;;;5075181;28;20059;-81
2021/05/23 11:25:39;;;;;;;14.95;3.63;;;;;;;;;;5072672;28;20482;-81
2021/05/23 11:28:07;;;;;;;17.88;2.38;;;;;;;;;;5066219;28;20062;-81
2021/05/23 11:30:35;;;;;;;11.65;2.58;;;;;;;;;;5081665;27;20464;-81
2021/05/23 11:33:10;;;;;;;14.23;3.15;;;;;;;;;;5063192;28;20353;-82
2021/05/23 11:35:39;;;;;;;15.63;2.83;;;;;;;;;;5075028;28;20028;-82
2021/05/23 11:38:09;;;;;;;15.93;3.10;;;;;;;;;;5089935;28;20012;-81
2021/05/23 11:40:42;;;;;;;13.60;3.10;;;;;;;;;;5081381;28;20143;-81
2021/05/23 11:43:24;;;;;;;15.10;3.13;;;;;;;;;;5074242;28;20165;-81
2021/05/23 11:45:50;;;;;;;14.38;3.08;;;;;;;;;;5071063;28;20507;-79
2021/05/23 11:48:20;;;;;;;12.02;2.72;;;;;;;;;;5082423;27;20667;-80
2021/05/23 11:50:50;;;;;;;15.07;3.50;;;;;;;;;;5070172;28;20036;-80
2021/05/23 11:53:21;;;;;;;15.07;2.72;;;;;;;;;;5062921;28;20024;-80
2021/05/23 11:55:52;;;;;;;15.48;3.22;;;;;;;;;;5064121;28;20035;-80
2021/05/23 11:58:19;;;;;;;18.88;4.50;;;;;;;;;;5059517;28;20043;-79
2021/05/23 12:00:46;;;;;;;16.33;3.20;;;;;;;;;;5070550;28;20028;-80
2021/05/23 12:03:15;;;;;;;13.98;3.00;;;;;;;;;;5062543;28;20450;-80
2021/05/23 12:05:44;;;;;;;14.45;2.80;;;;;;;;;;5067292;28;20086;-80
2021/05/23 12:08:22;;;;;;;19.35;3.28;;;;;;;;;;5058761;28;20028;-82
2021/05/23 12:11:07;;;;;;;16.63;3.38;;;;;;;;;;5064641;28;20032;-80
2021/05/23 12:13:48;;;;;;;14.98;3.20;;;;;;;;;;5067593;28;20047;-81
2021/05/23 12:16:20;;;;;;;14.35;3.08;;;;;;;;;;5063707;28;20624;-79
2021/05/23 12:18:56;;;;;;;12.32;2.88;;;;;;;;;;5061265;28;20542;-82
2021/05/23 12:21:24;;;;;;;14.50;2.97;;;;;;;;;;5064230;28;20039;-81
2021/05/23 12:23:55;;;;;;;17.25;3.67;;;;;;;;;;5064651;28;20639;-80
2021/05/23 12:26:26;;;;;;;14.43;3.67;;;;;;;;;;5060619;28;20115;-80
2021/05/23 12:28:53;;;;;;;18.77;3.30;;;;;;;;;;5067281;28;20051;-81
2021/05/23 12:31:22;;;;;;;14.00;2.88;;;;;;;;;;5060180;28;20708;-80
2021/05/23 12:33:57;;;;;;;14.50;2.90;;;;;;;;;;5078020;27;20116;-80
2021/05/23 12:36:25;;;;;;;13.63;2.60;;;;;;;;;;5062392;28;20024;-81
2021/05/23 12:39:07;;;;;;;16.10;2.60;;;;;;;;;;5042941;28;20453;-81
2021/05/23 12:41:47;;;;;;;11.65;2.60;;;;;;;;;;5064580;28;20031;-80
2021/05/23 12:44:26;;;;;;;12.00;2.10;;;;;;;;;;5059673;28;20403;-82
2021/05/23 12:46:54;;;;;;;13.05;2.42;;;;;;;;;;5065669;28;20035;-82
2021/05/23 12:49:22;;;;;;;14.10;2.60;;;;;;;;;;5065437;28;20070;-81
2021/05/23 12:51:53;;;;;;;10.77;2.53;;;;;;;;;;5067062;28;20032;-81
2021/05/23 12:54:35;;;;;;;12.85;3.03;;;;;;;;;;5060965;28;22679;-82
2021/05/23 12:57:05;;;;;;;13.82;3.17;;;;;;;;;;5059033;28;20020;-83
2021/05/23 12:59:37;;;;;;;15.18;2.83;;;;;;;;;;5065253;28;20140;-80
2021/05/23 13:02:04;;;;;;;11.50;2.20;;;;;;;;;;5054656;28;20024;-80
2021/05/23 13:04:56;;;;;;;12.25;2.45;;;;;;;;;;5066207;28;20062;-80
2021/05/23 13:07:24;;;;;;;11.55;2.38;;;;;;;;;;5059653;28;20487;-81
2021/05/23 13:09:52;;;;;;;12.90;2.78;;;;;;;;;;5076340;28;20115;-81
2021/05/23 13:12:22;;;;;;;12.38;2.72;;;;;;;;;;5060544;28;21628;-81
2021/05/23 13:17:45;;;;;;;11.02;2.17;;;;;;;;;;5064607;28;20043;-80
2021/05/23 13:20:12;;;;;;;11.68;2.63;;;;;;;;;;5054899;28;20039;-81
2021/05/23 13:22:39;;;;;;;14.70;2.88;;;;;;;;;;5079581;28;20039;-81
2021/05/23 13:25:09;;;;;;;12.27;2.53;;;;;;;;;;5058770;28;20028;-81
2021/05/23 13:27:38;;;;;;;10.73;2.20;;;;;;;;;;5063299;28;20027;-81
2021/05/23 13:30:06;;;;;;;14.95;2.88;;;;;;;;;;5063847;28;20052;-81
2021/05/23 13:32:32;;;;;;;16.23;3.25;;;;;;;;;;5069108;28;20038;-82
2021/05/23 13:34:58;;;;;;;15.27;2.78;;;;;;;;;;5063505;28;20032;-81
2021/05/23 13:37:28;;;;;;;13.68;2.75;;;;;;;;;;5065265;28;20017;-82
2021/05/23 13:39:58;;;;;;;13.32;2.35;;;;;;;;;;5069079;28;20141;-80
2021/05/23 13:42:24;;;;;;;13.55;2.35;;;;;;;;;;5066869;28;20031;-81
2021/05/23 13:44:51;;;;;;;12.10;2.58;;;;;;;;;;5066155;28;20482;-81
2021/05/23 13:47:20;;;;;;;13.45;3.50;;;;;;;;;;5063504;28;20035;-80
2021/05/23 13:49:46;;;;;;;14.20;2.63;;;;;;;;;;5063582;28;20032;-82
2021/05/23 13:52:13;;;;;;;14.32;2.60;;;;;;;;;;5062328;28;20043;-80
2021/05/23 13:54:41;;;;;;;10.52;2.28;;;;;;;;;;5066220;28;20055;-81
2021/05/23 13:57:10;;;;;;;14.65;2.70;;;;;;;;;;5077693;28;20031;-82
2021/05/23 13:59:38;;;;;;;11.05;2.47;;;;;;;;;;5070098;28;20028;-82
2021/05/23 14:02:05;;;;;;;12.00;2.55;;;;;;;;;;5064149;28;20070;-81
2021/05/23 14:04:33;;;;;;;12.90;2.33;;;;;;;;;;5066279;28;20492;-81
2021/05/23 14:07:02;;;;;;;12.05;2.40;;;;;;;;;;5079753;28;20039;-80
2021/05/23 14:09:29;;;;;;;9.88;1.80;;;;;;;;;;5077001;28;20038;-80
2021/05/23 14:11:57;;;;;;;11.80;2.33;;;;;;;;;;5067523;28;20487;-80
2021/05/23 14:14:26;;;;;;;11.30;2.40;;;;;;;;;;5063131;28;20044;-81
2021/05/23 14:16:54;;;;;;;13.85;2.28;;;;;;;;;;5067108;28;20088;-79
2021/05/23 14:19:24;;;;;;;10.90;2.25;;;;;;;;;;5061247;28;20036;-81
2021/05/23 14:21:52;;;;;;;12.10;2.53;;;;;;;;;;5067322;28;20042;-82
2021/05/23 14:24:21;;;;;;;9.18;1.70;;;;;;;;;;5060960;28;20051;-82
2021/05/23 14:26:51;;;;;;;12.18;2.58;;;;;;;;;;5065124;28;20035;-81
2021/05/23 14:29:25;;;;;;;15.23;3.03;;;;;;;;;;5063887;28;20398;-80
2021/05/23 14:31:53;;;;;;;12.73;2.58;;;;;;;;;;5065853;28;20125;-81
2021/05/23 14:34:19;;;;;;;18.80;2.53;;;;;;;;;;5074468;28;20032;-81
2021/05/23 14:36:46;;;;;;;13.90;2.33;;;;;;;;;;5066516;28;20197;-81
2021/05/23 14:39:13;;;;;;;12.88;2.03;;;;;;;;;;5062912;28;20508;-81
2021/05/23 14:41:41;;;;;;;14.10;2.20;;;;;;;;;;5069284;28;20042;-82
2021/05/23 14:44:24;;;;;;;13.85;2.40;;;;;;;;;;5064043;28;20044;-80
2021/05/23 14:46:51;;;;;;;13.32;2.45;;;;;;;;;;5071438;28;20039;-81
2021/05/23 14:49:18;;;;;;;10.93;2.22;;;;;;;;;;5068031;28;20083;-82
2021/05/23 14:51:46;;;;;;;13.73;3.00;;;;;;;;;;5066762;28;20032;-82